To NAV CANADA Home Page Login to a new session Search on AWWS site Feedback and Comments Disclaimer Vers la page française équivalente Tips FAQ What's new on the site To the Forecasts and Observations / NOTAM section To "File a Flight Plan" website Publications and other links Update of the User's profile FIC Telephone Numbers My Weather Data Folder Route Weather Data Regional Weather Data Local Weather Data To the Forecasts and Observations / NOTAM section
Request Generated 08/03/2015 at 15:05:36 UTC . Weather information available at that time is displayed.

METAR/TAF

QUEBEC/JEAN LESAGE INTL/QC    

METAR CYQB 031500Z 23008G16KT 190V290 30SM BKN042 BKN075 23/18 A2961
RMK SC5AC2 SLP028 DENSITY ALT 1500FT=
METAR CYQB 031400Z 03005KT 30SM VCSH BKN046 BKN120 21/18 A2961 RMK
SC6AC1 SLP027 DENSITY ALT 1300FT=
SPECI CYQB 031341Z 01005KT 30SM VCSH BKN050 BKN120 20/18 A2961 RMK
SC5AC2 SLP026 DENSITY ALT 1200FT=
SPECI CYQB 031314Z 36004KT 350V080 10SM -SHRA BKN049 BKN100 21/17
A2963 RMK SC6AC1 PRESRR SLP032 DENSITY ALT 1200FT=
METAR CYQB 031300Z 09005KT 15SM VCSH BKN058 BKN100 21/17 A2960 RMK
SC5AC2 SLP025 DENSITY ALT 1300FT=

TAF AMD CYQB 031306Z 0313/0412 VRB03KT WS010/24040KT P6SM SCT020
BKN060 TEMPO 0313/0315 VRB15G25KT 3SM TSRA BR BKN020CB
FM031500 22015G30KT P6SM -SHRA BKN030 TEMPO 0315/0322 5SM -SHRA
BR BKN020 PROB30 0315/0322 VRB20G35KT 2SM TSRA BR BKN020CB
FM032200 22015KT P6SM -SHRA BKN030
FM040100 24008KT P6SM BKN015
RMK NXT FCST BY 031800Z=
Your time UTC time
Weather data provided by Environment Canada and NAV CANADA